createdAt,value
2023-03-21T00:01:26.892Z,3.17
2023-03-21T00:03:28.627Z,2.35
2023-03-21T00:05:31.079Z,3.50
2023-03-21T00:07:32.663Z,2.75
2023-03-21T00:09:34.175Z,5.18
2023-03-21T00:11:35.832Z,4.88
2023-03-21T00:13:38.613Z,6.20
2023-03-21T00:16:01.966Z,4.68
2023-03-21T00:18:11.394Z,5.05
2023-03-21T00:20:14.804Z,4.22
2023-03-21T00:22:16.465Z,4.45
2023-03-21T00:24:18.205Z,3.35
2023-03-21T00:26:19.933Z,3.28
2023-03-21T00:28:22.475Z,5.53
2023-03-21T00:30:24.024Z,4.07
2023-03-21T00:32:26.164Z,5.53
2023-03-21T00:34:36.914Z,3.92
2023-03-21T00:36:45.276Z,3.03
2023-03-21T00:38:46.972Z,3.42
2023-03-21T00:40:49.423Z,3.88
2023-03-21T00:42:51.006Z,2.90
2023-03-21T00:44:52.561Z,3.28
2023-03-21T00:47:06.258Z,4.65
2023-03-21T00:49:09.345Z,5.68
2023-03-21T00:51:15.392Z,3.50
2023-03-21T00:53:17.094Z,3.60
2023-03-21T00:55:20.119Z,4.15
2023-03-21T00:57:29.334Z,5.38
2023-03-21T00:59:38.669Z,3.25
2023-03-21T01:01:40.320Z,3.88
2023-03-21T01:03:50.982Z,2.78
2023-03-21T01:06:05.394Z,3.10
2023-03-21T01:10:25.570Z,5.03
2023-03-21T01:12:27.580Z,2.42
2023-03-21T01:14:30.792Z,4.65
2023-03-21T01:16:32.468Z,4.88
2023-03-21T01:18:35.662Z,4.70
2023-03-21T01:20:37.719Z,3.50
2023-03-21T01:22:39.262Z,4.38
2023-03-21T01:24:52.370Z,3.78
2023-03-21T01:26:56.091Z,3.85
2023-03-21T01:28:57.828Z,3.95
2023-03-21T01:31:01.806Z,3.65
2023-03-21T01:33:03.878Z,3.83
2023-03-21T01:35:06.761Z,4.20
2023-03-21T01:37:08.629Z,3.13
2023-03-21T01:39:17.425Z,2.42
2023-03-21T01:41:33.625Z,2.78
2023-03-21T01:43:40.108Z,3.08
2023-03-21T01:46:10.626Z,2.88
2023-03-21T01:48:30.586Z,3.78
2023-03-21T01:50:34.341Z,4.25
2023-03-21T01:52:57.279Z,4.13
2023-03-21T01:55:06.869Z,3.20
2023-03-21T01:57:29.990Z,2.92
2023-03-21T01:59:42.733Z,4.15
2023-03-21T02:02:07.204Z,5.18
2023-03-21T02:04:13.236Z,5.13
2023-03-21T02:06:23.645Z,6.60
2023-03-21T02:08:39.098Z,6.47
2023-03-21T02:10:50.536Z,5.80
2023-03-21T02:13:09.631Z,6.50
2023-03-21T02:15:14.482Z,6.15
2023-03-21T02:17:38.385Z,4.43
2023-03-21T02:19:59.307Z,6.28
2023-03-21T02:22:16.920Z,7.25
2023-03-21T02:24:44.310Z,5.18
2023-03-21T02:27:06.693Z,5.18
2023-03-21T02:29:34.551Z,5.80
2023-03-21T02:31:45.625Z,6.38
2023-03-21T02:38:07.128Z,5.65
2023-03-21T02:40:14.373Z,6.35
2023-03-21T02:42:22.875Z,6.30
2023-03-21T02:44:49.731Z,5.60
2023-03-21T02:47:10.315Z,5.63
2023-03-21T02:49:20.739Z,5.53
2023-03-21T02:51:27.860Z,6.18
2023-03-21T02:53:36.886Z,5.90
2023-03-21T02:55:42.948Z,4.82
2023-03-21T02:57:48.234Z,6.00
2023-03-21T02:59:55.592Z,5.32
2023-03-21T03:02:06.056Z,4.63
2023-03-21T03:04:39.978Z,6.20
2023-03-21T03:07:03.417Z,4.75
2023-03-21T03:09:17.875Z,5.85
2023-03-21T03:11:26.003Z,6.43
2023-03-21T03:14:31.480Z,4.18
2023-03-21T03:16:49.442Z,4.35
2023-03-21T03:19:01.508Z,3.45
2023-03-21T03:21:09.344Z,5.63
2023-03-21T03:23:30.919Z,8.02
2023-03-21T03:25:56.360Z,3.20
2023-03-21T03:28:01.327Z,3.55
2023-03-21T03:30:05.628Z,4.88
2023-03-21T03:32:15.784Z,4.72
2023-03-21T03:34:22.071Z,4.35
2023-03-21T03:36:32.482Z,3.65
2023-03-21T03:40:46.370Z,4.18
2023-03-21T03:43:08.736Z,3.00
2023-03-21T03:45:12.862Z,4.53
2023-03-21T03:47:32.875Z,3.95
2023-03-21T03:49:42.481Z,5.10
2023-03-21T03:51:54.276Z,4.05
2023-03-21T03:54:11.037Z,4.20
2023-03-21T03:56:13.842Z,4.07
2023-03-21T03:58:23.789Z,4.90
2023-03-21T04:00:31.706Z,4.45
2023-03-21T04:02:33.362Z,3.38
2023-03-21T04:04:38.671Z,5.88
2023-03-21T04:06:41.339Z,4.60
2023-03-21T04:08:43.314Z,3.83
2023-03-21T04:10:44.920Z,4.68
2023-03-21T04:12:46.607Z,3.42
2023-03-21T04:14:56.959Z,3.03
2023-03-21T04:17:03.562Z,4.03
2023-03-21T04:19:06.380Z,3.63
2023-03-21T04:21:10.252Z,4.55
2023-03-21T04:23:12.695Z,3.08
2023-03-21T04:25:30.652Z,3.42
2023-03-21T04:27:35.129Z,2.60
2023-03-21T04:29:56.191Z,2.95
2023-03-21T04:32:26.040Z,3.60
2023-03-21T04:34:40.323Z,5.03
2023-03-21T04:36:46.248Z,4.13
2023-03-21T04:38:48.459Z,3.15
2023-03-21T04:40:51.084Z,4.53
2023-03-21T04:42:52.944Z,3.00
2023-03-21T04:44:54.619Z,3.40
2023-03-21T04:46:58.471Z,3.67
2023-03-21T04:49:00.364Z,3.63
2023-03-21T04:51:02.161Z,2.63
2023-03-21T04:53:03.803Z,2.67
2023-03-21T04:55:09.952Z,2.92
2023-03-21T04:57:11.646Z,2.58
2023-03-21T04:59:15.450Z,2.97
2023-03-21T05:01:20.082Z,3.60
2023-03-21T05:03:23.304Z,2.72
2023-03-21T05:05:25.671Z,4.15
2023-03-21T05:07:27.195Z,2.65
2023-03-21T05:09:29.791Z,2.33
2023-03-21T05:11:32.475Z,3.63
2023-03-21T05:13:34.090Z,3.00
2023-03-21T05:15:35.846Z,3.83
2023-03-21T05:17:38.292Z,3.72
2023-03-21T05:19:40.514Z,3.05
2023-03-21T05:21:42.305Z,3.75
2023-03-21T05:23:54.590Z,4.05
2023-03-21T05:25:56.298Z,3.83
2023-03-21T05:28:14.281Z,2.88
2023-03-21T05:30:18.667Z,2.65
2023-03-21T05:32:22.900Z,4.05
2023-03-21T05:34:25.394Z,2.22
2023-03-21T05:36:27.071Z,4.10
2023-03-21T05:38:28.910Z,2.85
2023-03-21T05:40:30.620Z,2.80
2023-03-21T05:42:33.504Z,2.75
2023-03-21T05:44:40.283Z,4.55
2023-03-21T05:46:44.064Z,2.55
2023-03-21T05:48:45.928Z,4.40
2023-03-21T05:50:50.100Z,5.03
2023-03-21T05:52:53.931Z,4.40
2023-03-21T05:54:55.629Z,4.50
2023-03-21T05:56:59.007Z,3.85
2023-03-21T05:59:28.146Z,3.92
2023-03-21T06:01:31.408Z,3.13
2023-03-21T06:03:42.461Z,3.55
2023-03-21T06:06:10.668Z,4.25
2023-03-21T06:08:18.141Z,2.92
2023-03-21T06:10:21.013Z,4.13
2023-03-21T06:12:24.242Z,3.28
2023-03-21T06:14:48.669Z,2.55
2023-03-21T06:16:55.383Z,3.05
2023-03-21T06:18:57.325Z,4.32
2023-03-21T06:21:10.480Z,2.88
2023-03-21T06:23:15.635Z,4.30
2023-03-21T06:25:17.301Z,3.35
2023-03-21T06:27:19.379Z,3.70
2023-03-21T06:29:31.047Z,3.38
2023-03-21T06:31:32.604Z,5.15
2023-03-21T06:33:37.356Z,3.88
2023-03-21T06:35:39.454Z,3.42
2023-03-21T06:37:42.845Z,2.25
2023-03-21T06:39:46.878Z,6.13
2023-03-21T06:41:48.562Z,3.40
2023-03-21T06:43:50.358Z,3.33
2023-03-21T06:45:52.385Z,4.20
2023-03-21T06:47:54.238Z,2.80
2023-03-21T06:50:10.712Z,2.38
2023-03-21T06:52:16.292Z,5.70
2023-03-21T06:54:18.929Z,3.63
2023-03-21T06:56:31.074Z,3.35
2023-03-21T06:58:32.964Z,3.50
2023-03-21T07:00:34.923Z,4.53
2023-03-21T07:02:36.974Z,4.28
2023-03-21T07:04:44.617Z,3.33
2023-03-21T07:06:51.797Z,5.05
2023-03-21T07:08:56.350Z,5.22
2023-03-21T07:10:58.732Z,8.25
2023-03-21T07:13:00.530Z,3.35
2023-03-21T07:15:11.598Z,2.88
2023-03-21T07:17:14.425Z,3.72
2023-03-21T07:19:16.131Z,3.47
2023-03-21T07:21:18.045Z,5.18
2023-03-21T07:23:21.828Z,3.28
2023-03-21T07:25:24.007Z,6.05
2023-03-21T07:27:25.733Z,4.32
2023-03-21T07:29:27.659Z,5.13
2023-03-21T07:31:29.613Z,4.75
2023-03-21T07:33:32.645Z,3.53
2023-03-21T07:35:37.561Z,4.18
2023-03-21T07:37:40.981Z,7.65
2023-03-21T07:39:43.299Z,7.57
2023-03-21T07:41:45.428Z,4.70
2023-03-21T07:44:09.662Z,6.25
2023-03-21T07:46:11.364Z,5.50
2023-03-21T07:48:13.877Z,4.55
2023-03-21T07:50:16.397Z,5.25
2023-03-21T07:52:18.809Z,6.68
2023-03-21T07:54:22.637Z,5.50
2023-03-21T07:56:24.080Z,4.75
2023-03-21T07:58:27.156Z,6.97
2023-03-21T08:00:29.032Z,4.10
2023-03-21T08:02:30.752Z,6.05
2023-03-21T08:04:32.336Z,5.38
2023-03-21T08:06:33.948Z,6.03
2023-03-21T08:08:35.754Z,6.47
2023-03-21T08:10:38.328Z,6.80
2023-03-21T08:12:40.229Z,4.97
2023-03-21T08:14:41.816Z,4.60
2023-03-21T08:16:43.388Z,7.90
2023-03-21T08:18:44.992Z,6.35
2023-03-21T08:20:46.482Z,6.07
2023-03-21T08:22:48.861Z,5.32
2023-03-21T08:26:52.088Z,5.20
2023-03-21T08:28:53.676Z,4.30
2023-03-21T08:30:55.494Z,7.07
2023-03-21T08:33:00.927Z,7.13
2023-03-21T08:35:03.960Z,8.52
2023-03-21T08:37:05.588Z,6.57
2023-03-21T08:39:07.355Z,7.25
2023-03-21T08:41:08.938Z,3.65
2023-03-21T08:43:11.462Z,6.00
2023-03-21T08:45:15.438Z,6.47
2023-03-21T08:47:17.072Z,6.97
2023-03-21T08:49:18.589Z,4.30
2023-03-21T08:51:20.799Z,4.18
2023-03-21T08:53:22.368Z,5.72
2023-03-21T08:55:24.068Z,6.78
2023-03-21T08:57:25.778Z,4.03
2023-03-21T08:59:27.372Z,4.32
2023-03-21T09:01:29.554Z,4.55
2023-03-21T09:03:31.050Z,4.57
2023-03-21T09:05:32.830Z,5.40
2023-03-21T09:07:36.535Z,5.60
2023-03-21T09:09:39.128Z,3.75
2023-03-21T09:11:40.969Z,6.50
2023-03-21T09:13:42.448Z,5.13
2023-03-21T09:15:45.180Z,8.82
2023-03-21T09:17:48.873Z,4.70
2023-03-21T09:19:50.869Z,6.47
2023-03-21T09:21:53.888Z,5.78
2023-03-21T09:23:58.334Z,5.22
2023-03-21T09:25:59.906Z,5.18
2023-03-21T09:28:05.273Z,7.00
2023-03-21T09:30:08.236Z,7.80
2023-03-21T09:32:10.577Z,5.28
2023-03-21T09:36:14.426Z,6.63
2023-03-21T09:38:16.665Z,6.03
2023-03-21T09:40:23.470Z,8.02
2023-03-21T09:42:59.062Z,6.35
2023-03-21T09:45:18.885Z,6.57
2023-03-21T09:47:37.868Z,5.95
2023-03-21T09:49:49.126Z,5.38
2023-03-21T09:51:52.800Z,9.10
2023-03-21T09:53:57.542Z,6.63
2023-03-21T09:56:02.056Z,4.40
2023-03-21T09:58:21.878Z,4.03
2023-03-21T10:00:35.025Z,6.00
2023-03-21T10:02:41.402Z,5.70
2023-03-21T10:04:46.320Z,5.80
2023-03-21T10:06:56.910Z,7.05
2023-03-21T10:09:08.459Z,4.85
2023-03-21T10:11:15.720Z,8.82
2023-03-21T10:13:23.093Z,5.45
2023-03-21T10:15:26.702Z,8.05
2023-03-21T10:17:43.500Z,5.70
2023-03-21T10:19:46.978Z,4.57
2023-03-21T10:22:00.750Z,6.35
2023-03-21T10:24:03.947Z,4.55
2023-03-21T10:26:07.882Z,4.38
2023-03-21T10:28:16.445Z,5.63
2023-03-21T10:30:42.686Z,8.50
2023-03-21T10:32:44.422Z,5.13
2023-03-21T10:34:52.335Z,7.47
2023-03-21T10:36:54.479Z,8.45
2023-03-21T10:39:04.403Z,4.57
2023-03-21T10:41:06.354Z,5.80
2023-03-21T10:43:35.513Z,5.50
2023-03-21T10:45:37.441Z,6.65
2023-03-21T10:47:39.389Z,9.10
2023-03-21T10:50:05.658Z,6.43
2023-03-21T10:52:07.224Z,3.63
2023-03-21T10:54:13.797Z,5.80
2023-03-21T10:56:15.796Z,5.78
2023-03-21T10:58:28.640Z,2.97
2023-03-21T11:00:35.838Z,5.85
2023-03-21T11:02:38.126Z,5.68
2023-03-21T11:04:39.751Z,4.10
2023-03-21T11:06:44.780Z,6.00
2023-03-21T11:08:54.155Z,6.43
2023-03-21T11:11:02.574Z,7.10
2023-03-21T11:15:24.852Z,7.05
2023-03-21T11:17:34.099Z,4.10
2023-03-21T11:19:36.457Z,5.20
2023-03-21T11:21:38.698Z,3.72
2023-03-21T11:23:49.407Z,5.95
2023-03-21T11:25:51.342Z,4.32
2023-03-21T11:27:56.162Z,5.72
2023-03-21T11:30:01.523Z,4.72
2023-03-21T11:32:19.882Z,4.10
2023-03-21T11:34:32.725Z,6.90
2023-03-21T11:36:40.722Z,4.90
2023-03-21T11:38:42.287Z,3.67
2023-03-21T11:40:54.257Z,5.95
2023-03-21T11:43:01.215Z,6.03
2023-03-21T11:45:13.105Z,5.22
2023-03-21T11:47:14.612Z,4.55
2023-03-21T11:49:16.244Z,5.85
2023-03-21T11:51:26.366Z,4.50
2023-03-21T11:53:52.308Z,4.00
2023-03-21T11:56:31.020Z,4.20
2023-03-21T11:58:44.069Z,6.35
2023-03-21T12:01:12.120Z,5.47
2023-03-21T12:03:38.322Z,6.30
2023-03-21T12:05:54.475Z,6.18
2023-03-21T12:08:30.478Z,4.68
2023-03-21T12:10:58.280Z,4.47
2023-03-21T12:13:25.997Z,6.13
2023-03-21T12:15:55.974Z,4.90
2023-03-21T12:18:15.527Z,4.90
2023-03-21T12:20:27.049Z,4.78
2023-03-21T12:22:38.588Z,5.00
2023-03-21T12:24:53.474Z,5.65
2023-03-21T12:26:59.159Z,6.72
2023-03-21T12:29:19.474Z,4.88
2023-03-21T12:31:32.138Z,5.47
2023-03-21T12:33:45.876Z,4.75
2023-03-21T12:36:29.026Z,5.50
2023-03-21T12:38:57.813Z,4.35
2023-03-21T12:41:28.721Z,6.57
2023-03-21T12:43:55.438Z,4.18
2023-03-21T12:46:04.023Z,5.00
2023-03-21T12:48:17.861Z,5.82
2023-03-21T12:50:27.630Z,5.20
2023-03-21T12:52:34.690Z,5.55
2023-03-21T12:54:40.714Z,5.53
2023-03-21T12:56:54.432Z,6.60
2023-03-21T12:59:03.564Z,4.78
2023-03-21T13:01:06.593Z,5.32
2023-03-21T13:03:20.983Z,4.60
2023-03-21T13:05:34.029Z,5.85
2023-03-21T13:07:41.438Z,5.43
2023-03-21T13:09:43.564Z,6.30
2023-03-21T13:11:45.700Z,4.78
2023-03-21T13:13:59.993Z,5.75
2023-03-21T13:16:04.552Z,5.45
2023-03-21T13:18:17.852Z,6.22
2023-03-21T13:20:30.067Z,5.15
2023-03-21T13:22:31.903Z,4.95
2023-03-21T13:24:54.830Z,4.80
2023-03-21T13:27:02.409Z,6.22
2023-03-21T13:29:32.742Z,8.35
2023-03-21T13:31:51.057Z,8.07
2023-03-21T13:33:58.373Z,4.82
2023-03-21T13:36:07.054Z,3.42
2023-03-21T13:38:22.488Z,6.60
2023-03-21T13:40:48.586Z,7.15
2023-03-21T13:42:54.016Z,6.47
2023-03-21T13:44:58.988Z,4.18
2023-03-21T13:47:03.847Z,7.80
2023-03-21T13:49:07.884Z,7.95
2023-03-21T13:51:09.550Z,5.13
2023-03-21T13:53:20.770Z,4.38
2023-03-21T13:55:22.423Z,5.47
2023-03-21T13:57:26.694Z,7.13
2023-03-21T13:59:43.128Z,4.75
2023-03-21T14:02:04.225Z,5.35
2023-03-21T14:04:20.466Z,4.55
2023-03-21T14:06:31.081Z,6.28
2023-03-21T14:08:37.659Z,4.25
2023-03-21T14:10:45.194Z,5.43
2023-03-21T14:12:47.493Z,5.03
2023-03-21T14:15:10.402Z,4.20
2023-03-21T14:17:25.008Z,5.40
2023-03-21T14:19:32.337Z,5.95
2023-03-21T14:21:35.711Z,7.63
2023-03-21T14:23:38.957Z,6.03
2023-03-21T14:25:47.537Z,5.07
2023-03-21T14:27:59.458Z,7.53
2023-03-21T14:30:02.108Z,4.07
2023-03-21T14:32:05.584Z,8.23
2023-03-21T14:34:09.760Z,6.65
2023-03-21T14:36:15.516Z,6.15
2023-03-21T14:38:23.811Z,5.28
2023-03-21T14:40:27.586Z,6.85
2023-03-21T14:42:34.845Z,10.60
2023-03-21T14:44:55.008Z,5.53
2023-03-21T14:49:27.082Z,5.07
2023-03-21T14:51:29.035Z,5.68
2023-03-21T14:53:33.298Z,5.57
2023-03-21T14:55:42.204Z,7.97
2023-03-21T14:57:44.157Z,5.57
2023-03-21T14:59:48.587Z,6.05
2023-03-21T15:01:52.458Z,6.57
2023-03-21T15:03:54.404Z,7.20
2023-03-21T15:05:57.010Z,8.27
2023-03-21T15:08:15.637Z,5.55
2023-03-21T15:10:18.073Z,7.05
2023-03-21T15:12:19.817Z,5.68
2023-03-21T15:14:30.503Z,7.68
2023-03-21T15:16:33.210Z,7.57
2023-03-21T15:18:38.422Z,6.20
2023-03-21T15:20:40.220Z,6.03
2023-03-21T15:22:48.728Z,6.03
2023-03-21T15:27:00.698Z,7.07
2023-03-21T15:29:03.327Z,7.00
2023-03-21T15:31:06.714Z,5.13
2023-03-21T15:33:10.548Z,4.82
2023-03-21T15:35:21.590Z,5.22
2023-03-21T15:37:26.814Z,4.72
2023-03-21T15:39:29.453Z,5.15
2023-03-21T15:41:33.082Z,5.25
2023-03-21T15:43:39.803Z,3.83
2023-03-21T15:45:56.139Z,6.78
2023-03-21T15:48:11.053Z,3.70
2023-03-21T15:50:34.448Z,6.75
2023-03-21T15:52:36.606Z,3.95
2023-03-21T15:54:45.386Z,5.60
2023-03-21T15:58:53.428Z,6.13
2023-03-21T16:01:05.109Z,6.07
2023-03-21T16:03:27.134Z,7.80
2023-03-21T16:05:31.814Z,5.43
2023-03-21T16:07:34.241Z,4.60
2023-03-21T16:11:58.623Z,4.47
2023-03-21T16:14:20.081Z,6.07
2023-03-21T16:16:40.839Z,6.22
2023-03-21T16:19:03.420Z,4.75
2023-03-21T16:21:28.492Z,5.55
2023-03-21T16:23:51.039Z,5.95
2023-03-21T16:26:16.417Z,4.00
2023-03-21T16:28:38.559Z,4.30
2023-03-21T16:31:00.674Z,5.28
2023-03-21T16:33:25.348Z,6.03
2023-03-21T16:35:47.854Z,7.18
2023-03-21T16:38:12.386Z,5.38
2023-03-21T16:40:40.901Z,6.30
2023-03-21T16:43:03.054Z,7.38
2023-03-21T16:45:25.105Z,8.43
2023-03-21T16:47:47.958Z,9.50
2023-03-21T16:50:21.146Z,8.98
2023-03-21T16:52:43.691Z,9.60
2023-03-21T16:55:05.917Z,9.52
2023-03-21T16:57:29.052Z,8.65
2023-03-21T16:59:50.946Z,7.22
2023-03-21T17:02:16.268Z,4.32
2023-03-21T17:04:38.331Z,5.75
2023-03-21T17:07:01.774Z,7.90
2023-03-21T17:09:27.788Z,5.55
2023-03-21T17:11:49.864Z,7.47
2023-03-21T17:14:12.803Z,5.35
2023-03-21T17:16:36.980Z,7.18
2023-03-21T17:19:00.743Z,8.32
2023-03-21T17:21:25.710Z,5.63
2023-03-21T17:23:48.051Z,6.10
2023-03-21T17:26:13.255Z,6.60
2023-03-21T17:28:35.764Z,6.22
2023-03-21T17:30:57.885Z,6.78
2023-03-21T17:33:19.761Z,6.97
2023-03-21T17:35:41.678Z,6.95
2023-03-21T17:38:04.875Z,8.18
2023-03-21T17:40:30.156Z,7.78
2023-03-21T17:42:52.502Z,5.70
2023-03-21T17:45:14.968Z,4.95
2023-03-21T17:47:37.975Z,5.60
2023-03-21T17:50:00.131Z,6.65
2023-03-21T17:52:24.200Z,5.97
2023-03-21T17:54:46.541Z,7.20
2023-03-21T17:57:11.145Z,5.85
2023-03-21T17:59:33.004Z,5.40
2023-03-21T18:01:55.115Z,5.55
2023-03-21T18:04:17.134Z,7.65
2023-03-21T18:06:39.633Z,8.73
2023-03-21T18:09:07.038Z,9.05
2023-03-21T18:11:29.057Z,10.52
2023-03-21T18:13:51.331Z,8.68
2023-03-21T18:16:20.091Z,8.63
2023-03-21T18:18:42.491Z,8.32
2023-03-21T18:21:05.842Z,6.90
2023-03-21T18:23:27.735Z,5.13
2023-03-21T18:25:52.125Z,4.65
2023-03-21T18:28:17.633Z,4.85
2023-03-21T18:31:04.864Z,4.07
2023-03-21T18:33:23.961Z,5.40
2023-03-21T18:35:46.798Z,3.53
2023-03-21T18:38:08.916Z,4.88
2023-03-21T18:40:31.053Z,3.83
2023-03-21T18:43:45.648Z,3.63
2023-03-21T18:45:35.001Z,4.25
2023-03-21T18:47:56.881Z,4.85
2023-03-21T18:50:19.734Z,4.32
2023-03-21T18:52:42.157Z,3.55
2023-03-21T18:55:09.008Z,3.95
2023-03-21T18:57:37.035Z,3.58
2023-03-21T19:00:00.906Z,4.00
2023-03-21T19:02:22.795Z,4.53
2023-03-21T19:04:45.086Z,3.92
2023-03-21T19:07:08.474Z,4.35
2023-03-21T19:09:32.111Z,4.13
2023-03-21T19:11:54.201Z,4.15
2023-03-21T19:14:17.458Z,4.70
2023-03-21T19:17:13.861Z,3.83
2023-03-21T19:19:23.483Z,4.82
2023-03-21T19:21:47.029Z,5.25
2023-03-21T19:24:26.396Z,3.83
2023-03-21T19:26:48.950Z,4.20
2023-03-21T19:29:14.889Z,3.85
2023-03-21T19:31:37.123Z,3.33
2023-03-21T19:33:59.479Z,4.35
2023-03-21T19:36:23.241Z,5.13
2023-03-21T19:38:45.529Z,4.25
2023-03-21T19:41:07.429Z,5.25
2023-03-21T19:43:33.234Z,3.30
2023-03-21T19:45:57.759Z,4.72
2023-03-21T19:48:20.113Z,4.20
2023-03-21T19:51:03.328Z,5.43
2023-03-21T19:53:24.088Z,4.90
2023-03-21T19:55:50.694Z,6.57
2023-03-21T19:58:16.026Z,7.40
2023-03-21T20:00:38.869Z,4.90
2023-03-21T20:03:01.666Z,6.93
2023-03-21T20:05:25.469Z,6.95
2023-03-21T20:07:48.056Z,8.25
2023-03-21T20:10:11.209Z,8.50
2023-03-21T20:12:33.381Z,6.50
2023-03-21T20:15:10.295Z,7.55
2023-03-21T20:17:40.339Z,8.95
2023-03-21T20:20:14.015Z,8.20
2023-03-21T20:23:05.270Z,10.05
2023-03-21T20:25:23.074Z,7.20
2023-03-21T20:27:45.092Z,13.23
2023-03-21T20:30:10.648Z,9.35
2023-03-21T20:32:33.293Z,8.95
2023-03-21T20:35:06.859Z,7.13
2023-03-21T20:37:36.271Z,9.23
2023-03-21T20:39:58.656Z,7.25
2023-03-21T20:42:20.965Z,6.78
2023-03-21T20:45:00.529Z,7.68
2023-03-21T20:47:23.572Z,9.70
2023-03-21T20:49:45.771Z,5.85
2023-03-21T20:52:52.124Z,6.78
2023-03-21T20:54:50.449Z,9.57
2023-03-21T20:57:12.327Z,9.02
2023-03-21T20:59:35.091Z,9.65
2023-03-21T21:01:57.896Z,8.38
2023-03-21T21:04:21.777Z,9.10
2023-03-21T21:06:44.720Z,8.82
2023-03-21T21:09:06.533Z,9.60
2023-03-21T21:14:10.517Z,12.27
2023-03-21T21:16:32.535Z,10.68
2023-03-21T21:18:36.704Z,30.98
2023-03-21T21:20:40.109Z,17.40
2023-03-21T21:22:46.146Z,12.77
2023-03-21T21:24:57.381Z,11.20
2023-03-21T21:26:59.493Z,20.80
2023-03-21T21:29:01.522Z,22.98
2023-03-21T21:31:16.268Z,11.77
2023-03-21T21:35:20.498Z,12.60
2023-03-21T21:37:22.930Z,11.75
2023-03-21T21:39:26.451Z,18.27
2023-03-21T21:41:28.052Z,8.65
2023-03-21T21:43:30.674Z,21.35
2023-03-21T21:45:32.460Z,20.08
2023-03-21T21:47:33.984Z,12.88
2023-03-21T21:49:35.877Z,12.93
2023-03-21T21:51:38.143Z,9.63
2023-03-21T21:55:42.221Z,11.45
2023-03-21T21:57:43.757Z,6.68
2023-03-21T21:59:46.665Z,11.50
2023-03-21T22:01:50.987Z,7.35
2023-03-21T22:03:52.582Z,5.43
2023-03-21T22:06:02.467Z,5.15
2023-03-21T22:08:04.338Z,5.07
2023-03-21T22:10:06.630Z,5.57
2023-03-21T22:12:08.837Z,6.43
2023-03-21T22:14:10.512Z,5.45
2023-03-21T22:16:12.129Z,6.72
2023-03-21T22:18:13.740Z,6.20
2023-03-21T22:20:17.527Z,5.47
2023-03-21T22:22:20.121Z,5.50
2023-03-21T22:24:21.709Z,4.80
2023-03-21T22:26:23.611Z,5.25
2023-03-21T22:28:28.011Z,4.60
2023-03-21T22:30:30.472Z,5.80
2023-03-21T22:32:33.383Z,4.78
2023-03-21T22:34:35.179Z,4.25
2023-03-21T22:36:36.808Z,4.68
2023-03-21T22:38:38.579Z,5.03
2023-03-21T22:40:40.513Z,6.20
2023-03-21T22:42:43.386Z,5.63
2023-03-21T22:46:46.513Z,4.45
2023-03-21T22:48:48.555Z,4.80
2023-03-21T22:50:50.135Z,7.35
2023-03-21T22:52:51.649Z,6.60
2023-03-21T22:54:53.316Z,6.25
2023-03-21T22:56:55.395Z,6.93
2023-03-21T22:58:57.172Z,5.75
2023-03-21T23:01:02.543Z,7.03
2023-03-21T23:03:04.228Z,7.75
2023-03-21T23:05:06.760Z,7.30
2023-03-21T23:07:08.294Z,8.68
2023-03-21T23:09:10.578Z,12.90
2023-03-21T23:11:12.812Z,11.65
2023-03-21T23:13:14.470Z,12.25
2023-03-21T23:15:16.029Z,14.48
2023-03-21T23:17:17.573Z,10.05
2023-03-21T23:19:21.075Z,11.45
2023-03-21T23:21:23.770Z,9.27
2023-03-21T23:25:28.877Z,7.07
2023-03-21T23:27:30.432Z,10.07
2023-03-21T23:29:32.131Z,8.63
2023-03-21T23:31:33.810Z,8.45
2023-03-21T23:33:35.645Z,7.20
2023-03-21T23:35:38.826Z,7.00
2023-03-21T23:37:42.570Z,7.90
2023-03-21T23:39:45.187Z,7.30
2023-03-21T23:41:46.705Z,7.45
2023-03-21T23:43:48.543Z,6.93
2023-03-21T23:45:51.982Z,4.50
2023-03-21T23:47:53.526Z,6.97
2023-03-21T23:49:55.062Z,7.05
2023-03-21T23:51:56.625Z,5.38
2023-03-21T23:53:58.453Z,5.47
2023-03-21T23:56:01.628Z,5.20
2023-03-21T23:58:05.621Z,5.13
